sensor_id;sensor_type;location;lat;lon;timestamp;P1;durP1;ratioP1;P2;durP2;ratioP2
42864;SDS011;28511;42.680;23.252;2023-05-10T00:01:12;0.32;;;0.32;;
42864;SDS011;28511;42.680;23.252;2023-05-10T00:03:38;0.50;;;0.50;;
42864;SDS011;28511;42.680;23.252;2023-05-10T00:06:03;0.20;;;0.20;;
42864;SDS011;28511;42.680;23.252;2023-05-10T00:08:28;0.95;;;0.95;;
42864;SDS011;28511;42.680;23.252;2023-05-10T00:10:54;0.30;;;0.30;;
42864;SDS011;28511;42.680;23.252;2023-05-10T00:13:19;1.13;;;1.02;;
42864;SDS011;28511;42.680;23.252;2023-05-10T00:15:44;0.93;;;0.90;;
42864;SDS011;28511;42.680;23.252;2023-05-10T00:18:10;0.85;;;0.85;;
42864;SDS011;28511;42.680;23.252;2023-05-10T00:20:35;1.33;;;0.73;;
42864;SDS011;28511;42.680;23.252;2023-05-10T00:23:00;0.63;;;0.63;;
42864;SDS011;28511;42.680;23.252;2023-05-10T00:25:26;1.60;;;1.50;;
42864;SDS011;28511;42.680;23.252;2023-05-10T00:27:51;1.40;;;1.25;;
42864;SDS011;28511;42.680;23.252;2023-05-10T00:30:16;0.55;;;0.55;;
42864;SDS011;28511;42.680;23.252;2023-05-10T00:32:41;0.30;;;0.30;;
42864;SDS011;28511;42.680;23.252;2023-05-10T00:35:08;5.32;;;1.02;;
42864;SDS011;28511;42.680;23.252;2023-05-10T00:37:33;0.63;;;0.63;;
42864;SDS011;28511;42.680;23.252;2023-05-10T00:39:59;1.17;;;1.17;;
42864;SDS011;28511;42.680;23.252;2023-05-10T00:42:24;0.35;;;0.35;;
42864;SDS011;28511;42.680;23.252;2023-05-10T00:44:50;0.60;;;0.60;;
42864;SDS011;28511;42.680;23.252;2023-05-10T00:47:16;0.40;;;0.40;;
42864;SDS011;28511;42.680;23.252;2023-05-10T00:49:41;0.30;;;0.30;;
42864;SDS011;28511;42.680;23.252;2023-05-10T00:52:07;1.90;;;1.75;;
42864;SDS011;28511;42.680;23.252;2023-05-10T00:54:33;0.20;;;0.20;;
42864;SDS011;28511;42.680;23.252;2023-05-10T00:56:58;0.40;;;0.40;;
42864;SDS011;28511;42.680;23.252;2023-05-10T00:59:24;0.50;;;0.50;;
42864;SDS011;28511;42.680;23.252;2023-05-10T01:01:49;0.73;;;0.73;;
42864;SDS011;28511;42.680;23.252;2023-05-10T01:04:16;1.05;;;0.95;;
42864;SDS011;28511;42.680;23.252;2023-05-10T01:06:42;1.15;;;1.15;;
42864;SDS011;28511;42.680;23.252;2023-05-10T01:09:07;0.52;;;0.52;;
42864;SDS011;28511;42.680;23.252;2023-05-10T01:11:34;2.17;;;1.40;;
42864;SDS011;28511;42.680;23.252;2023-05-10T01:14:00;0.35;;;0.35;;
42864;SDS011;28511;42.680;23.252;2023-05-10T01:16:25;0.75;;;0.75;;
42864;SDS011;28511;42.680;23.252;2023-05-10T01:18:51;0.30;;;0.30;;
42864;SDS011;28511;42.680;23.252;2023-05-10T01:32:06;0.30;;;0.30;;
42864;SDS011;28511;42.680;23.252;2023-05-10T01:34:37;0.30;;;0.30;;
42864;SDS011;28511;42.680;23.252;2023-05-10T01:37:06;1.08;;;0.95;;
42864;SDS011;28511;42.680;23.252;2023-05-10T01:39:36;0.70;;;0.70;;
42864;SDS011;28511;42.680;23.252;2023-05-10T01:42:08;1.65;;;1.50;;
42864;SDS011;28511;42.680;23.252;2023-05-10T01:44:38;0.47;;;0.47;;
42864;SDS011;28511;42.680;23.252;2023-05-10T01:49:32;0.20;;;0.20;;
42864;SDS011;28511;42.680;23.252;2023-05-10T01:51:59;2.97;;;1.77;;
42864;SDS011;28511;42.680;23.252;2023-05-10T01:54:25;1.13;;;1.08;;
42864;SDS011;28511;42.680;23.252;2023-05-10T01:56:55;0.52;;;0.52;;
42864;SDS011;28511;42.680;23.252;2023-05-10T01:59:21;0.40;;;0.40;;
42864;SDS011;28511;42.680;23.252;2023-05-10T02:01:46;2.10;;;1.65;;
42864;SDS011;28511;42.680;23.252;2023-05-10T02:04:13;0.88;;;0.88;;
42864;SDS011;28511;42.680;23.252;2023-05-10T02:06:40;0.50;;;0.50;;
42864;SDS011;28511;42.680;23.252;2023-05-10T02:09:06;0.40;;;0.40;;
42864;SDS011;28511;42.680;23.252;2023-05-10T02:11:32;1.88;;;1.77;;
42864;SDS011;28511;42.680;23.252;2023-05-10T02:13:58;0.63;;;0.63;;
42864;SDS011;28511;42.680;23.252;2023-05-10T02:16:24;0.57;;;0.57;;
42864;SDS011;28511;42.680;23.252;2023-05-10T02:18:50;0.50;;;0.50;;
42864;SDS011;28511;42.680;23.252;2023-05-10T02:21:16;0.30;;;0.30;;
42864;SDS011;28511;42.680;23.252;2023-05-10T02:23:42;1.13;;;0.90;;
42864;SDS011;28511;42.680;23.252;2023-05-10T02:26:07;0.22;;;0.22;;
42864;SDS011;28511;42.680;23.252;2023-05-10T02:28:33;0.20;;;0.20;;
42864;SDS011;28511;42.680;23.252;2023-05-10T02:30:58;0.25;;;0.25;;
42864;SDS011;28511;42.680;23.252;2023-05-10T02:33:24;0.50;;;0.50;;
42864;SDS011;28511;42.680;23.252;2023-05-10T02:35:50;0.43;;;0.43;;
42864;SDS011;28511;42.680;23.252;2023-05-10T02:38:15;0.20;;;0.20;;
42864;SDS011;28511;42.680;23.252;2023-05-10T02:40:42;0.68;;;0.68;;
42864;SDS011;28511;42.680;23.252;2023-05-10T02:43:09;0.40;;;0.40;;
42864;SDS011;28511;42.680;23.252;2023-05-10T02:45:36;5.85;;;2.20;;
42864;SDS011;28511;42.680;23.252;2023-05-10T02:48:03;0.77;;;0.77;;
42864;SDS011;28511;42.680;23.252;2023-05-10T02:50:29;0.93;;;0.75;;
42864;SDS011;28511;42.680;23.252;2023-05-10T02:52:59;0.40;;;0.40;;
42864;SDS011;28511;42.680;23.252;2023-05-10T02:55:31;0.40;;;0.40;;
42864;SDS011;28511;42.680;23.252;2023-05-10T02:58:00;0.75;;;0.75;;
42864;SDS011;28511;42.680;23.252;2023-05-10T03:00:26;0.75;;;0.75;;
42864;SDS011;28511;42.680;23.252;2023-05-10T03:02:51;1.05;;;0.80;;
42864;SDS011;28511;42.680;23.252;2023-05-10T03:05:17;1.75;;;1.33;;
42864;SDS011;28511;42.680;23.252;2023-05-10T03:07:43;1.55;;;1.30;;
42864;SDS011;28511;42.680;23.252;2023-05-10T03:10:08;0.82;;;0.80;;
42864;SDS011;28511;42.680;23.252;2023-05-10T03:12:56;0.70;;;0.70;;
42864;SDS011;28511;42.680;23.252;2023-05-10T03:17:52;1.95;;;1.38;;
42864;SDS011;28511;42.680;23.252;2023-05-10T03:20:24;1.45;;;1.35;;
42864;SDS011;28511;42.680;23.252;2023-05-10T03:22:51;0.65;;;0.50;;
42864;SDS011;28511;42.680;23.252;2023-05-10T03:25:17;2.08;;;1.25;;
42864;SDS011;28511;42.680;23.252;2023-05-10T03:27:44;2.92;;;1.60;;
42864;SDS011;28511;42.680;23.252;2023-05-10T03:30:10;0.82;;;0.80;;
42864;SDS011;28511;42.680;23.252;2023-05-10T03:32:36;1.77;;;1.20;;
42864;SDS011;28511;42.680;23.252;2023-05-10T03:35:11;2.00;;;1.45;;
42864;SDS011;28511;42.680;23.252;2023-05-10T03:37:38;3.40;;;1.23;;
42864;SDS011;28511;42.680;23.252;2023-05-10T03:40:03;1.75;;;0.82;;
42864;SDS011;28511;42.680;23.252;2023-05-10T03:42:28;2.90;;;1.40;;
42864;SDS011;28511;42.680;23.252;2023-05-10T03:44:54;2.45;;;1.40;;
42864;SDS011;28511;42.680;23.252;2023-05-10T03:47:19;1.50;;;1.20;;
42864;SDS011;28511;42.680;23.252;2023-05-10T03:49:44;3.65;;;1.85;;
42864;SDS011;28511;42.680;23.252;2023-05-10T03:52:10;0.88;;;0.88;;
42864;SDS011;28511;42.680;23.252;2023-05-10T03:54:35;1.35;;;1.02;;
42864;SDS011;28511;42.680;23.252;2023-05-10T03:57:01;1.90;;;1.52;;
42864;SDS011;28511;42.680;23.252;2023-05-10T03:59:27;1.13;;;1.00;;
42864;SDS011;28511;42.680;23.252;2023-05-10T04:01:53;1.48;;;1.17;;
42864;SDS011;28511;42.680;23.252;2023-05-10T04:04:18;1.67;;;1.30;;
42864;SDS011;28511;42.680;23.252;2023-05-10T04:06:45;0.45;;;0.45;;
42864;SDS011;28511;42.680;23.252;2023-05-10T04:09:11;1.20;;;1.20;;
42864;SDS011;28511;42.680;23.252;2023-05-10T04:11:36;1.13;;;1.10;;
42864;SDS011;28511;42.680;23.252;2023-05-10T04:14:01;3.15;;;1.60;;
42864;SDS011;28511;42.680;23.252;2023-05-10T04:16:26;1.65;;;1.08;;
42864;SDS011;28511;42.680;23.252;2023-05-10T04:18:52;0.63;;;0.63;;
42864;SDS011;28511;42.680;23.252;2023-05-10T04:21:17;2.47;;;0.52;;
42864;SDS011;28511;42.680;23.252;2023-05-10T04:23:42;1.58;;;1.48;;
42864;SDS011;28511;42.680;23.252;2023-05-10T04:26:07;1.80;;;1.38;;
42864;SDS011;28511;42.680;23.252;2023-05-10T04:28:33;4.82;;;1.15;;
42864;SDS011;28511;42.680;23.252;2023-05-10T04:31:04;2.10;;;1.90;;
42864;SDS011;28511;42.680;23.252;2023-05-10T04:33:30;1.55;;;1.02;;
42864;SDS011;28511;42.680;23.252;2023-05-10T04:35:55;0.98;;;0.93;;
42864;SDS011;28511;42.680;23.252;2023-05-10T04:38:21;0.93;;;0.93;;
42864;SDS011;28511;42.680;23.252;2023-05-10T04:40:46;0.88;;;0.88;;
42864;SDS011;28511;42.680;23.252;2023-05-10T04:43:11;3.37;;;1.20;;
42864;SDS011;28511;42.680;23.252;2023-05-10T04:45:37;3.67;;;1.50;;
42864;SDS011;28511;42.680;23.252;2023-05-10T04:48:02;2.17;;;1.30;;
42864;SDS011;28511;42.680;23.252;2023-05-10T04:50:27;1.83;;;1.27;;
42864;SDS011;28511;42.680;23.252;2023-05-10T04:52:52;1.38;;;0.88;;
42864;SDS011;28511;42.680;23.252;2023-05-10T04:55:18;1.60;;;1.30;;
42864;SDS011;28511;42.680;23.252;2023-05-10T04:57:43;5.60;;;1.88;;
42864;SDS011;28511;42.680;23.252;2023-05-10T05:00:10;1.35;;;1.25;;
42864;SDS011;28511;42.680;23.252;2023-05-10T05:02:35;2.63;;;1.40;;
42864;SDS011;28511;42.680;23.252;2023-05-10T05:05:00;1.67;;;1.58;;
42864;SDS011;28511;42.680;23.252;2023-05-10T05:07:26;1.47;;;1.37;;
42864;SDS011;28511;42.680;23.252;2023-05-10T05:09:51;1.55;;;1.45;;
42864;SDS011;28511;42.680;23.252;2023-05-10T05:12:16;1.33;;;1.23;;
42864;SDS011;28511;42.680;23.252;2023-05-10T05:14:41;4.95;;;2.05;;
42864;SDS011;28511;42.680;23.252;2023-05-10T05:17:07;1.83;;;1.33;;
42864;SDS011;28511;42.680;23.252;2023-05-10T05:19:32;1.55;;;1.05;;
42864;SDS011;28511;42.680;23.252;2023-05-10T05:21:58;2.60;;;1.67;;
42864;SDS011;28511;42.680;23.252;2023-05-10T05:24:23;0.65;;;0.65;;
42864;SDS011;28511;42.680;23.252;2023-05-10T05:26:48;3.13;;;2.40;;
42864;SDS011;28511;42.680;23.252;2023-05-10T05:29:13;1.40;;;1.33;;
42864;SDS011;28511;42.680;23.252;2023-05-10T05:31:39;3.40;;;1.73;;
42864;SDS011;28511;42.680;23.252;2023-05-10T05:34:04;2.28;;;2.08;;
42864;SDS011;28511;42.680;23.252;2023-05-10T05:36:29;1.58;;;1.45;;
42864;SDS011;28511;42.680;23.252;2023-05-10T05:38:56;5.13;;;1.08;;
42864;SDS011;28511;42.680;23.252;2023-05-10T05:41:21;2.15;;;1.27;;
42864;SDS011;28511;42.680;23.252;2023-05-10T05:43:47;6.55;;;1.55;;
42864;SDS011;28511;42.680;23.252;2023-05-10T05:46:12;3.17;;;2.80;;
42864;SDS011;28511;42.680;23.252;2023-05-10T05:48:37;2.45;;;1.45;;
42864;SDS011;28511;42.680;23.252;2023-05-10T05:51:03;6.15;;;2.25;;
42864;SDS011;28511;42.680;23.252;2023-05-10T05:53:28;2.15;;;1.55;;
42864;SDS011;28511;42.680;23.252;2023-05-10T05:55:54;3.45;;;2.25;;
42864;SDS011;28511;42.680;23.252;2023-05-10T05:58:20;2.55;;;1.60;;
42864;SDS011;28511;42.680;23.252;2023-05-10T06:00:45;2.60;;;1.58;;
42864;SDS011;28511;42.680;23.252;2023-05-10T06:03:10;2.17;;;1.95;;
42864;SDS011;28511;42.680;23.252;2023-05-10T06:05:36;3.28;;;2.15;;
42864;SDS011;28511;42.680;23.252;2023-05-10T06:08:01;2.65;;;2.33;;
42864;SDS011;28511;42.680;23.252;2023-05-10T06:10:26;3.58;;;1.73;;
42864;SDS011;28511;42.680;23.252;2023-05-10T06:12:52;1.48;;;1.40;;
42864;SDS011;28511;42.680;23.252;2023-05-10T06:15:18;4.40;;;3.75;;
42864;SDS011;28511;42.680;23.252;2023-05-10T06:17:43;3.55;;;2.40;;
42864;SDS011;28511;42.680;23.252;2023-05-10T06:20:09;2.90;;;2.30;;
42864;SDS011;28511;42.680;23.252;2023-05-10T06:22:34;3.78;;;1.85;;
42864;SDS011;28511;42.680;23.252;2023-05-10T06:25:00;3.22;;;2.42;;
42864;SDS011;28511;42.680;23.252;2023-05-10T06:27:25;2.50;;;1.88;;
42864;SDS011;28511;42.680;23.252;2023-05-10T06:29:50;5.63;;;2.67;;
42864;SDS011;28511;42.680;23.252;2023-05-10T06:32:16;1.02;;;1.02;;
42864;SDS011;28511;42.680;23.252;2023-05-10T06:34:41;2.40;;;1.92;;
42864;SDS011;28511;42.680;23.252;2023-05-10T06:37:08;1.63;;;1.52;;
42864;SDS011;28511;42.680;23.252;2023-05-10T06:39:33;3.33;;;2.55;;
42864;SDS011;28511;42.680;23.252;2023-05-10T06:41:58;3.58;;;2.50;;
42864;SDS011;28511;42.680;23.252;2023-05-10T06:44:24;2.83;;;1.47;;
42864;SDS011;28511;42.680;23.252;2023-05-10T06:46:49;2.27;;;1.93;;
42864;SDS011;28511;42.680;23.252;2023-05-10T06:49:14;3.72;;;2.42;;
42864;SDS011;28511;42.680;23.252;2023-05-10T06:51:40;3.08;;;2.85;;
42864;SDS011;28511;42.680;23.252;2023-05-10T06:54:05;2.67;;;1.75;;
42864;SDS011;28511;42.680;23.252;2023-05-10T06:56:31;5.57;;;2.05;;
42864;SDS011;28511;42.680;23.252;2023-05-10T06:58:56;5.37;;;1.93;;
42864;SDS011;28511;42.680;23.252;2023-05-10T07:01:21;1.57;;;1.30;;
42864;SDS011;28511;42.680;23.252;2023-05-10T07:03:46;2.57;;;2.37;;
42864;SDS011;28511;42.680;23.252;2023-05-10T07:06:12;5.03;;;3.33;;
42864;SDS011;28511;42.680;23.252;2023-05-10T07:08:37;2.97;;;1.42;;
42864;SDS011;28511;42.680;23.252;2023-05-10T07:11:03;4.60;;;2.27;;
42864;SDS011;28511;42.680;23.252;2023-05-10T07:13:29;4.00;;;2.88;;
42864;SDS011;28511;42.680;23.252;2023-05-10T07:15:54;7.18;;;2.58;;
42864;SDS011;28511;42.680;23.252;2023-05-10T07:18:19;2.58;;;1.88;;
42864;SDS011;28511;42.680;23.252;2023-05-10T07:20:45;9.55;;;3.80;;
42864;SDS011;28511;42.680;23.252;2023-05-10T07:23:10;4.07;;;1.97;;
42864;SDS011;28511;42.680;23.252;2023-05-10T07:25:35;3.88;;;2.42;;
42864;SDS011;28511;42.680;23.252;2023-05-10T07:28:00;1.83;;;1.73;;
42864;SDS011;28511;42.680;23.252;2023-05-10T07:30:26;5.53;;;2.25;;
42864;SDS011;28511;42.680;23.252;2023-05-10T07:32:51;4.70;;;2.03;;
42864;SDS011;28511;42.680;23.252;2023-05-10T07:35:16;5.95;;;3.45;;
42864;SDS011;28511;42.680;23.252;2023-05-10T07:37:42;3.70;;;2.10;;
42864;SDS011;28511;42.680;23.252;2023-05-10T07:40:07;3.93;;;2.77;;
42864;SDS011;28511;42.680;23.252;2023-05-10T07:42:32;4.97;;;1.92;;
42864;SDS011;28511;42.680;23.252;2023-05-10T07:44:58;5.37;;;2.50;;
42864;SDS011;28511;42.680;23.252;2023-05-10T07:47:23;2.53;;;1.67;;
42864;SDS011;28511;42.680;23.252;2023-05-10T07:49:48;5.00;;;3.63;;
42864;SDS011;28511;42.680;23.252;2023-05-10T07:52:14;3.15;;;1.98;;
42864;SDS011;28511;42.680;23.252;2023-05-10T07:54:39;4.07;;;2.85;;
42864;SDS011;28511;42.680;23.252;2023-05-10T07:57:04;2.50;;;1.70;;
42864;SDS011;28511;42.680;23.252;2023-05-10T07:59:29;2.55;;;2.13;;
42864;SDS011;28511;42.680;23.252;2023-05-10T08:01:55;2.80;;;2.17;;
42864;SDS011;28511;42.680;23.252;2023-05-10T08:04:21;2.17;;;1.65;;
42864;SDS011;28511;42.680;23.252;2023-05-10T08:06:47;3.58;;;1.88;;
42864;SDS011;28511;42.680;23.252;2023-05-10T08:09:12;2.95;;;2.65;;
42864;SDS011;28511;42.680;23.252;2023-05-10T08:11:38;4.47;;;2.83;;
42864;SDS011;28511;42.680;23.252;2023-05-10T08:14:03;4.43;;;3.03;;
42864;SDS011;28511;42.680;23.252;2023-05-10T08:16:28;2.50;;;2.30;;
42864;SDS011;28511;42.680;23.252;2023-05-10T08:18:54;4.45;;;2.95;;
42864;SDS011;28511;42.680;23.252;2023-05-10T08:21:20;2.80;;;1.80;;
42864;SDS011;28511;42.680;23.252;2023-05-10T08:23:45;4.68;;;2.00;;
42864;SDS011;28511;42.680;23.252;2023-05-10T08:26:10;3.20;;;2.00;;
42864;SDS011;28511;42.680;23.252;2023-05-10T08:28:36;3.30;;;1.90;;
42864;SDS011;28511;42.680;23.252;2023-05-10T08:31:01;3.27;;;2.60;;
42864;SDS011;28511;42.680;23.252;2023-05-10T08:33:26;6.50;;;3.15;;
42864;SDS011;28511;42.680;23.252;2023-05-10T08:35:51;3.17;;;2.00;;
42864;SDS011;28511;42.680;23.252;2023-05-10T08:38:17;2.90;;;2.20;;
42864;SDS011;28511;42.680;23.252;2023-05-10T08:40:43;2.72;;;1.73;;
42864;SDS011;28511;42.680;23.252;2023-05-10T08:43:09;4.30;;;2.92;;
42864;SDS011;28511;42.680;23.252;2023-05-10T08:45:38;3.63;;;2.80;;
42864;SDS011;28511;42.680;23.252;2023-05-10T08:48:05;5.20;;;2.70;;
42864;SDS011;28511;42.680;23.252;2023-05-10T08:50:30;5.75;;;2.47;;
42864;SDS011;28511;42.680;23.252;2023-05-10T08:52:57;5.32;;;3.08;;
42864;SDS011;28511;42.680;23.252;2023-05-10T08:55:23;3.50;;;2.28;;
42864;SDS011;28511;42.680;23.252;2023-05-10T08:57:49;2.75;;;2.38;;
42864;SDS011;28511;42.680;23.252;2023-05-10T09:00:14;3.50;;;2.13;;
42864;SDS011;28511;42.680;23.252;2023-05-10T09:02:40;3.20;;;2.05;;
42864;SDS011;28511;42.680;23.252;2023-05-10T09:05:07;2.45;;;1.88;;
42864;SDS011;28511;42.680;23.252;2023-05-10T09:07:32;5.88;;;3.40;;
42864;SDS011;28511;42.680;23.252;2023-05-10T09:09:57;8.80;;;3.00;;
42864;SDS011;28511;42.680;23.252;2023-05-10T09:12:23;4.30;;;2.83;;
42864;SDS011;28511;42.680;23.252;2023-05-10T09:14:48;2.25;;;1.45;;
42864;SDS011;28511;42.680;23.252;2023-05-10T09:17:15;4.28;;;2.38;;
42864;SDS011;28511;42.680;23.252;2023-05-10T09:19:40;2.88;;;2.67;;
42864;SDS011;28511;42.680;23.252;2023-05-10T09:22:05;2.47;;;2.20;;
42864;SDS011;28511;42.680;23.252;2023-05-10T09:24:31;2.55;;;2.20;;
42864;SDS011;28511;42.680;23.252;2023-05-10T09:26:56;2.35;;;1.83;;
42864;SDS011;28511;42.680;23.252;2023-05-10T09:29:22;2.75;;;2.20;;
42864;SDS011;28511;42.680;23.252;2023-05-10T09:31:49;4.07;;;2.72;;
42864;SDS011;28511;42.680;23.252;2023-05-10T09:34:20;2.50;;;1.88;;
42864;SDS011;28511;42.680;23.252;2023-05-10T09:36:55;5.03;;;2.60;;
42864;SDS011;28511;42.680;23.252;2023-05-10T09:39:29;2.42;;;2.15;;
42864;SDS011;28511;42.680;23.252;2023-05-10T09:41:55;2.78;;;2.35;;
42864;SDS011;28511;42.680;23.252;2023-05-10T09:44:20;3.25;;;2.15;;
42864;SDS011;28511;42.680;23.252;2023-05-10T09:46:48;3.60;;;2.28;;
42864;SDS011;28511;42.680;23.252;2023-05-10T09:49:14;4.20;;;2.60;;
42864;SDS011;28511;42.680;23.252;2023-05-10T09:51:39;3.40;;;2.70;;
42864;SDS011;28511;42.680;23.252;2023-05-10T09:54:08;3.22;;;1.88;;
42864;SDS011;28511;42.680;23.252;2023-05-10T09:56:34;4.03;;;2.63;;
42864;SDS011;28511;42.680;23.252;2023-05-10T09:59:03;7.85;;;2.85;;
42864;SDS011;28511;42.680;23.252;2023-05-10T10:01:28;3.65;;;2.65;;
42864;SDS011;28511;42.680;23.252;2023-05-10T10:03:54;4.47;;;2.55;;
42864;SDS011;28511;42.680;23.252;2023-05-10T10:06:19;3.55;;;2.50;;
42864;SDS011;28511;42.680;23.252;2023-05-10T10:08:46;3.67;;;2.95;;
42864;SDS011;28511;42.680;23.252;2023-05-10T10:11:11;1.98;;;1.52;;
42864;SDS011;28511;42.680;23.252;2023-05-10T10:13:37;4.77;;;2.93;;
42864;SDS011;28511;42.680;23.252;2023-05-10T10:16:02;5.00;;;2.70;;
42864;SDS011;28511;42.680;23.252;2023-05-10T10:18:27;2.22;;;1.88;;
42864;SDS011;28511;42.680;23.252;2023-05-10T10:20:54;2.60;;;2.20;;
42864;SDS011;28511;42.680;23.252;2023-05-10T10:23:19;2.58;;;1.48;;
42864;SDS011;28511;42.680;23.252;2023-05-10T10:25:45;3.13;;;2.25;;
42864;SDS011;28511;42.680;23.252;2023-05-10T10:28:22;3.30;;;2.20;;
42864;SDS011;28511;42.680;23.252;2023-05-10T10:30:49;2.72;;;2.17;;
42864;SDS011;28511;42.680;23.252;2023-05-10T10:36:01;3.38;;;2.97;;
42864;SDS011;28511;42.680;23.252;2023-05-10T10:41:26;6.43;;;2.53;;
42864;SDS011;28511;42.680;23.252;2023-05-10T10:44:22;4.38;;;1.95;;
42864;SDS011;28511;42.680;23.252;2023-05-10T10:46:56;5.93;;;2.05;;
42864;SDS011;28511;42.680;23.252;2023-05-10T10:49:22;2.55;;;2.22;;
42864;SDS011;28511;42.680;23.252;2023-05-10T10:54:32;1.98;;;1.60;;
42864;SDS011;28511;42.680;23.252;2023-05-10T10:57:13;1.80;;;1.55;;
42864;SDS011;28511;42.680;23.252;2023-05-10T10:59:44;2.13;;;1.75;;
42864;SDS011;28511;42.680;23.252;2023-05-10T11:02:10;3.60;;;2.83;;
42864;SDS011;28511;42.680;23.252;2023-05-10T11:04:55;3.42;;;2.42;;
42864;SDS011;28511;42.680;23.252;2023-05-10T11:07:21;2.70;;;1.80;;
42864;SDS011;28511;42.680;23.252;2023-05-10T11:09:49;3.83;;;1.80;;
42864;SDS011;28511;42.680;23.252;2023-05-10T11:12:14;2.75;;;2.10;;
42864;SDS011;28511;42.680;23.252;2023-05-10T11:14:39;2.03;;;1.55;;
42864;SDS011;28511;42.680;23.252;2023-05-10T11:17:24;4.18;;;2.85;;
42864;SDS011;28511;42.680;23.252;2023-05-10T11:20:09;3.13;;;1.75;;
42864;SDS011;28511;42.680;23.252;2023-05-10T11:22:53;31.92;;;2.33;;
42864;SDS011;28511;42.680;23.252;2023-05-10T11:25:20;10.70;;;2.78;;
42864;SDS011;28511;42.680;23.252;2023-05-10T11:27:46;2.65;;;2.15;;
42864;SDS011;28511;42.680;23.252;2023-05-10T11:30:12;3.95;;;1.85;;
42864;SDS011;28511;42.680;23.252;2023-05-10T11:32:38;1.75;;;1.65;;
42864;SDS011;28511;42.680;23.252;2023-05-10T11:35:10;2.30;;;2.10;;
42864;SDS011;28511;42.680;23.252;2023-05-10T11:37:35;6.85;;;2.95;;
42864;SDS011;28511;42.680;23.252;2023-05-10T11:40:00;2.90;;;2.45;;
42864;SDS011;28511;42.680;23.252;2023-05-10T11:42:27;3.42;;;1.77;;
42864;SDS011;28511;42.680;23.252;2023-05-10T11:44:52;2.42;;;1.88;;
42864;SDS011;28511;42.680;23.252;2023-05-10T11:47:18;4.28;;;2.45;;
42864;SDS011;28511;42.680;23.252;2023-05-10T11:49:43;2.10;;;1.87;;
42864;SDS011;28511;42.680;23.252;2023-05-10T11:52:09;1.95;;;1.58;;
42864;SDS011;28511;42.680;23.252;2023-05-10T11:54:36;2.60;;;1.42;;
42864;SDS011;28511;42.680;23.252;2023-05-10T11:57:01;15.07;;;3.03;;
42864;SDS011;28511;42.680;23.252;2023-05-10T11:59:26;3.53;;;2.67;;
42864;SDS011;28511;42.680;23.252;2023-05-10T12:01:52;2.67;;;2.05;;
42864;SDS011;28511;42.680;23.252;2023-05-10T12:04:17;4.28;;;2.95;;
42864;SDS011;28511;42.680;23.252;2023-05-10T12:06:42;3.75;;;1.38;;
42864;SDS011;28511;42.680;23.252;2023-05-10T12:09:08;3.03;;;2.28;;
42864;SDS011;28511;42.680;23.252;2023-05-10T12:11:36;3.15;;;2.63;;
42864;SDS011;28511;42.680;23.252;2023-05-10T12:14:03;3.92;;;2.13;;
42864;SDS011;28511;42.680;23.252;2023-05-10T12:16:29;4.20;;;2.80;;
42864;SDS011;28511;42.680;23.252;2023-05-10T12:18:58;2.80;;;2.00;;
42864;SDS011;28511;42.680;23.252;2023-05-10T12:21:24;3.90;;;3.10;;
42864;SDS011;28511;42.680;23.252;2023-05-10T12:23:50;4.50;;;2.35;;
42864;SDS011;28511;42.680;23.252;2023-05-10T12:26:15;2.90;;;1.95;;
42864;SDS011;28511;42.680;23.252;2023-05-10T12:28:41;2.20;;;1.23;;
42864;SDS011;28511;42.680;23.252;2023-05-10T12:31:06;2.20;;;2.00;;
42864;SDS011;28511;42.680;23.252;2023-05-10T12:33:44;5.57;;;3.15;;
42864;SDS011;28511;42.680;23.252;2023-05-10T12:36:10;3.70;;;3.15;;
42864;SDS011;28511;42.680;23.252;2023-05-10T12:38:39;2.40;;;1.75;;
42864;SDS011;28511;42.680;23.252;2023-05-10T12:41:08;3.75;;;2.38;;
42864;SDS011;28511;42.680;23.252;2023-05-10T12:43:34;3.50;;;2.13;;
42864;SDS011;28511;42.680;23.252;2023-05-10T12:48:31;2.60;;;2.22;;
42864;SDS011;28511;42.680;23.252;2023-05-10T12:50:58;3.45;;;3.08;;
42864;SDS011;28511;42.680;23.252;2023-05-10T12:53:24;3.65;;;2.63;;
42864;SDS011;28511;42.680;23.252;2023-05-10T12:55:49;2.90;;;1.98;;
42864;SDS011;28511;42.680;23.252;2023-05-10T12:58:14;6.70;;;2.60;;
42864;SDS011;28511;42.680;23.252;2023-05-10T13:00:39;3.05;;;1.85;;
42864;SDS011;28511;42.680;23.252;2023-05-10T13:03:05;3.25;;;2.78;;
42864;SDS011;28511;42.680;23.252;2023-05-10T13:05:31;2.42;;;2.22;;
42864;SDS011;28511;42.680;23.252;2023-05-10T13:07:57;3.05;;;2.22;;
42864;SDS011;28511;42.680;23.252;2023-05-10T13:10:22;6.40;;;2.47;;
42864;SDS011;28511;42.680;23.252;2023-05-10T13:12:48;2.47;;;2.05;;
42864;SDS011;28511;42.680;23.252;2023-05-10T13:15:13;4.88;;;2.35;;
42864;SDS011;28511;42.680;23.252;2023-05-10T13:17:39;4.63;;;2.90;;
42864;SDS011;28511;42.680;23.252;2023-05-10T13:20:05;4.35;;;3.78;;
42864;SDS011;28511;42.680;23.252;2023-05-10T13:22:31;2.22;;;2.03;;
42864;SDS011;28511;42.680;23.252;2023-05-10T13:24:56;5.43;;;2.78;;
42864;SDS011;28511;42.680;23.252;2023-05-10T13:27:21;4.07;;;2.67;;
42864;SDS011;28511;42.680;23.252;2023-05-10T13:29:47;2.97;;;2.33;;
42864;SDS011;28511;42.680;23.252;2023-05-10T13:32:12;2.78;;;2.47;;
42864;SDS011;28511;42.680;23.252;2023-05-10T13:34:37;4.53;;;2.65;;
42864;SDS011;28511;42.680;23.252;2023-05-10T13:37:02;3.80;;;1.15;;
42864;SDS011;28511;42.680;23.252;2023-05-10T13:39:28;4.07;;;2.83;;
42864;SDS011;28511;42.680;23.252;2023-05-10T13:41:58;3.05;;;1.85;;
42864;SDS011;28511;42.680;23.252;2023-05-10T13:44:23;4.80;;;1.90;;
42864;SDS011;28511;42.680;23.252;2023-05-10T13:46:48;8.90;;;3.72;;
42864;SDS011;28511;42.680;23.252;2023-05-10T13:49:13;3.70;;;2.13;;
42864;SDS011;28511;42.680;23.252;2023-05-10T13:51:39;4.57;;;2.55;;
42864;SDS011;28511;42.680;23.252;2023-05-10T13:54:04;6.85;;;3.20;;
42864;SDS011;28511;42.680;23.252;2023-05-10T13:56:30;2.83;;;2.08;;
42864;SDS011;28511;42.680;23.252;2023-05-10T13:58:56;4.50;;;2.92;;
42864;SDS011;28511;42.680;23.252;2023-05-10T14:01:22;4.45;;;2.70;;
42864;SDS011;28511;42.680;23.252;2023-05-10T14:03:47;2.42;;;2.22;;
42864;SDS011;28511;42.680;23.252;2023-05-10T14:06:13;2.58;;;2.35;;
42864;SDS011;28511;42.680;23.252;2023-05-10T14:08:38;2.80;;;2.45;;
42864;SDS011;28511;42.680;23.252;2023-05-10T14:11:03;2.80;;;2.03;;
42864;SDS011;28511;42.680;23.252;2023-05-10T14:13:28;4.30;;;2.97;;
42864;SDS011;28511;42.680;23.252;2023-05-10T14:15:54;3.67;;;2.53;;
42864;SDS011;28511;42.680;23.252;2023-05-10T14:18:19;4.05;;;1.98;;
42864;SDS011;28511;42.680;23.252;2023-05-10T14:20:45;3.67;;;2.55;;
42864;SDS011;28511;42.680;23.252;2023-05-10T14:23:10;3.45;;;2.15;;
42864;SDS011;28511;42.680;23.252;2023-05-10T14:25:36;1.27;;;1.00;;
42864;SDS011;28511;42.680;23.252;2023-05-10T14:28:01;2.20;;;1.85;;
42864;SDS011;28511;42.680;23.252;2023-05-10T14:30:26;2.17;;;1.58;;
42864;SDS011;28511;42.680;23.252;2023-05-10T14:32:52;3.03;;;2.73;;
42864;SDS011;28511;42.680;23.252;2023-05-10T14:35:19;4.03;;;2.70;;
42864;SDS011;28511;42.680;23.252;2023-05-10T14:37:44;3.35;;;2.70;;
42864;SDS011;28511;42.680;23.252;2023-05-10T14:40:09;3.08;;;2.20;;
42864;SDS011;28511;42.680;23.252;2023-05-10T14:42:35;3.00;;;1.73;;
42864;SDS011;28511;42.680;23.252;2023-05-10T14:45:00;4.03;;;2.63;;
42864;SDS011;28511;42.680;23.252;2023-05-10T14:47:25;3.27;;;1.47;;
42864;SDS011;28511;42.680;23.252;2023-05-10T14:49:50;3.35;;;2.83;;
42864;SDS011;28511;42.680;23.252;2023-05-10T14:52:16;4.15;;;3.22;;
42864;SDS011;28511;42.680;23.252;2023-05-10T14:54:42;3.70;;;2.25;;